createdAt,value
2022-09-05T00:00:11.515Z,0.83
2022-09-05T00:05:25.713Z,0.82
2022-09-05T00:10:37.222Z,0.68
2022-09-05T00:15:51.586Z,0.90
2022-09-05T00:24:36.936Z,0.68
2022-09-05T00:26:28.742Z,0.90
2022-09-05T00:32:03.011Z,0.60
2022-09-05T00:37:04.560Z,1.00
2022-09-05T00:42:09.212Z,0.93
2022-09-05T00:47:26.384Z,1.08
2022-09-05T00:52:31.703Z,0.80
2022-09-05T00:57:53.410Z,0.95
2022-09-05T01:03:02.939Z,0.90
2022-09-05T01:08:04.481Z,0.83
2022-09-05T01:13:21.532Z,1.10
2022-09-05T01:18:34.265Z,0.82
2022-09-05T01:23:54.357Z,0.82
2022-09-05T01:29:18.449Z,0.93
2022-09-05T01:34:32.074Z,1.00
2022-09-05T01:40:14.438Z,0.90
2022-09-05T01:45:26.070Z,1.00
2022-09-05T01:51:28.305Z,0.90
2022-09-05T02:01:44.781Z,0.70
2022-09-05T02:07:19.344Z,1.02
2022-09-05T02:12:41.866Z,1.15
2022-09-05T02:17:50.638Z,1.20
2022-09-05T02:22:56.185Z,1.10
2022-09-05T02:28:06.299Z,1.08
2022-09-05T02:33:21.997Z,1.00
2022-09-05T02:44:31.161Z,0.82
2022-09-05T02:45:18.444Z,0.80
2022-09-05T02:50:50.088Z,1.10
2022-09-05T02:57:36.375Z,0.85
2022-09-05T03:00:15.606Z,1.40
2022-09-05T03:05:26.777Z,0.80
2022-09-05T03:10:53.476Z,0.70
2022-09-05T03:16:04.660Z,0.80
2022-09-05T03:21:24.642Z,0.65
2022-09-05T03:26:45.268Z,0.80
2022-09-05T03:31:49.606Z,0.52
2022-09-05T03:36:54.113Z,0.63
2022-09-05T03:41:58.461Z,0.60
2022-09-05T03:47:18.756Z,0.60
2022-09-05T03:57:15.962Z,0.65
2022-09-05T03:58:16.757Z,0.77
2022-09-05T04:08:07.316Z,0.70
2022-09-05T04:09:04.784Z,0.57
2022-09-05T04:14:12.450Z,0.50
2022-09-05T04:19:13.883Z,0.50
2022-09-05T04:24:28.191Z,0.70
2022-09-05T04:29:38.871Z,0.85
2022-09-05T04:34:52.791Z,0.52
2022-09-05T04:39:54.368Z,0.50
2022-09-05T04:44:56.143Z,0.70
2022-09-05T04:50:00.769Z,0.77
2022-09-05T04:55:10.660Z,0.60
2022-09-05T05:05:58.342Z,0.50
2022-09-05T05:06:09.089Z,0.50
2022-09-05T05:17:23.871Z,0.82
2022-09-05T05:18:07.469Z,0.65
2022-09-05T05:22:04.730Z,0.95
2022-09-05T05:27:06.521Z,1.00
2022-09-05T05:32:08.098Z,1.10
2022-09-05T05:37:22.517Z,0.95
2022-09-05T05:42:24.449Z,0.60
2022-09-05T05:47:31.687Z,0.70
2022-09-05T05:52:52.549Z,0.70
2022-09-05T05:58:09.340Z,0.67
2022-09-05T06:03:26.990Z,0.77
2022-09-05T06:12:26.693Z,0.68
2022-09-05T06:14:59.698Z,0.85
2022-09-05T06:19:43.600Z,0.60
2022-09-05T06:24:58.771Z,1.00
2022-09-05T06:30:21.822Z,0.63
2022-09-05T06:35:26.155Z,0.50
2022-09-05T06:40:32.318Z,0.70
2022-09-05T06:45:49.375Z,0.70
2022-09-05T06:51:18.962Z,0.60
2022-09-05T06:56:32.727Z,0.63
2022-09-05T07:02:00.902Z,0.90
2022-09-05T07:07:02.139Z,0.50
2022-09-05T07:12:37.209Z,0.45
2022-09-05T07:18:09.464Z,0.57
2022-09-05T07:23:50.678Z,0.70
2022-09-05T07:28:44.801Z,0.60
2022-09-05T07:33:48.429Z,0.50
2022-09-05T07:39:12.194Z,0.25
2022-09-05T07:44:23.359Z,0.70
2022-09-05T07:49:27.520Z,0.52
2022-09-05T07:57:10.214Z,0.50
2022-09-05T07:59:56.007Z,0.35
2022-09-05T08:05:02.173Z,0.63
2022-09-05T08:10:09.085Z,0.45
2022-09-05T08:15:24.624Z,0.70
2022-09-05T08:20:26.866Z,0.50
2022-09-05T08:25:56.519Z,0.30
2022-09-05T08:31:04.277Z,0.60
2022-09-05T08:36:31.796Z,0.50
2022-09-05T08:41:56.137Z,0.65
2022-09-05T08:47:08.295Z,0.57
2022-09-05T08:52:28.933Z,0.50
2022-09-05T08:57:39.412Z,0.20
2022-09-05T09:02:58.853Z,0.38
2022-09-05T09:08:15.791Z,0.47
2022-09-05T09:13:23.575Z,0.50
2022-09-05T09:18:36.004Z,0.47
2022-09-05T09:23:40.987Z,0.47
2022-09-05T09:28:50.032Z,0.35
2022-09-05T09:34:01.565Z,0.35
2022-09-05T09:39:38.032Z,0.40
2022-09-05T09:44:55.506Z,0.30
2022-09-05T09:49:59.772Z,0.60
2022-09-05T09:55:21.523Z,0.50
2022-09-05T10:00:24.288Z,0.40
2022-09-05T10:11:08.727Z,0.50
2022-09-05T10:11:24.609Z,0.40
2022-09-05T10:16:09.957Z,0.40
2022-09-05T10:21:25.476Z,0.65
2022-09-05T10:26:45.088Z,0.40
2022-09-05T10:34:45.918Z,0.35
2022-09-05T10:37:18.855Z,0.40
2022-09-05T10:42:20.997Z,0.40
2022-09-05T10:47:34.623Z,0.38
2022-09-05T10:52:39.750Z,0.43
2022-09-05T10:57:41.322Z,0.30
2022-09-05T11:02:46.706Z,0.30
2022-09-05T11:07:53.992Z,0.30
2022-09-05T11:13:10.767Z,0.28
2022-09-05T11:18:23.546Z,0.32
2022-09-05T11:23:33.945Z,0.30
2022-09-05T11:28:57.593Z,0.30
2022-09-05T11:39:47.755Z,0.40
2022-09-05T11:45:19.617Z,0.50
2022-09-05T11:50:56.381Z,0.30
2022-09-05T11:56:03.826Z,0.20
2022-09-05T12:01:41.168Z,0.25
2022-09-05T12:06:37.678Z,0.30
2022-09-05T12:11:58.398Z,0.30
2022-09-05T12:22:47.436Z,0.32
2022-09-05T12:29:27.901Z,0.68
2022-09-05T12:36:03.950Z,0.30
2022-09-05T12:41:33.575Z,0.32
2022-09-05T12:42:09.813Z,0.40
2022-09-05T12:44:40.994Z,0.60
2022-09-05T12:50:02.384Z,0.35
2022-09-05T12:55:09.325Z,0.40
2022-09-05T13:03:09.165Z,0.43
2022-09-05T13:05:47.726Z,0.30
2022-09-05T13:14:14.508Z,0.30
2022-09-05T13:16:23.494Z,1.42
2022-09-05T13:21:27.202Z,0.40
2022-09-05T13:26:36.824Z,0.30
2022-09-05T13:37:53.647Z,0.90
2022-09-05T13:38:02.273Z,0.40
2022-09-05T13:42:39.563Z,0.38
2022-09-05T13:47:56.012Z,0.40
2022-09-05T13:53:00.518Z,0.32
2022-09-05T13:58:08.506Z,0.40
2022-09-05T14:03:38.409Z,0.40
2022-09-05T14:08:46.730Z,0.32
2022-09-05T14:14:16.050Z,0.40
2022-09-05T14:19:37.606Z,0.60
2022-09-05T14:24:46.729Z,0.38
2022-09-05T14:29:53.905Z,0.60
2022-09-05T14:37:44.462Z,0.40
2022-09-05T14:40:44.487Z,0.50
2022-09-05T14:46:04.825Z,0.45
2022-09-05T14:51:09.405Z,0.22
2022-09-05T14:57:49.887Z,0.20
2022-09-05T15:02:52.293Z,0.40
2022-09-05T15:07:10.069Z,0.40
2022-09-05T15:12:33.174Z,0.30
2022-09-05T15:17:47.689Z,0.30
2022-09-05T15:22:56.416Z,0.52
2022-09-05T15:27:59.301Z,0.30
2022-09-05T15:33:18.085Z,0.40
2022-09-05T15:38:46.665Z,0.52
2022-09-05T15:44:04.726Z,0.40
2022-09-05T15:49:23.665Z,0.40
2022-09-05T15:54:38.057Z,0.28
2022-09-05T15:59:47.309Z,0.30
2022-09-05T16:10:35.321Z,0.40
2022-09-05T16:10:49.376Z,0.25
2022-09-05T16:19:06.532Z,0.20
2022-09-05T16:23:33.601Z,0.30
2022-09-05T16:26:33.897Z,0.57
2022-09-05T16:31:40.191Z,0.50
2022-09-05T16:36:52.725Z,0.38
2022-09-05T16:42:15.134Z,0.30
2022-09-05T16:47:24.028Z,0.50
2022-09-05T16:52:30.372Z,0.30
2022-09-05T16:57:33.521Z,0.43
2022-09-05T17:02:53.192Z,2.58
2022-09-05T17:08:02.850Z,2.47
2022-09-05T17:13:04.991Z,2.50
2022-09-05T17:18:19.789Z,1.70
2022-09-05T17:29:19.469Z,0.80
2022-09-05T17:29:33.330Z,0.52
2022-09-05T17:34:18.602Z,0.40
2022-09-05T17:39:44.327Z,0.40
2022-09-05T17:44:50.704Z,0.35
2022-09-05T17:50:13.204Z,0.35
2022-09-05T17:55:16.342Z,0.47
2022-09-05T18:00:50.252Z,0.57
2022-09-05T18:06:03.796Z,0.43
2022-09-05T18:11:13.931Z,0.50
2022-09-05T18:16:30.041Z,0.60
2022-09-05T18:21:44.895Z,0.65
2022-09-05T18:26:48.815Z,0.80
2022-09-05T18:31:55.318Z,0.88
2022-09-05T18:37:23.041Z,0.65
2022-09-05T18:42:33.666Z,0.70
2022-09-05T18:47:50.998Z,0.80
2022-09-05T18:53:08.740Z,0.52
2022-09-05T18:58:12.762Z,0.57
2022-09-05T19:03:14.440Z,0.75
2022-09-05T19:08:36.194Z,0.60
2022-09-05T19:13:39.551Z,0.60
2022-09-05T19:18:59.546Z,0.60
2022-09-05T19:24:02.789Z,0.60
2022-09-05T19:36:48.682Z,0.80
2022-09-05T19:37:03.782Z,0.75
2022-09-05T19:43:19.881Z,0.82
2022-09-05T19:47:34.264Z,0.60
2022-09-05T19:50:47.355Z,0.70
2022-09-05T19:55:49.041Z,0.70
2022-09-05T20:01:00.745Z,0.77
2022-09-05T20:06:03.228Z,0.70
2022-09-05T20:11:07.781Z,0.80
2022-09-05T20:16:11.095Z,0.70
2022-09-05T20:21:23.174Z,0.80
2022-09-05T20:26:30.289Z,0.75
2022-09-05T20:31:33.186Z,0.90
2022-09-05T20:41:01.265Z,0.50
2022-09-05T20:43:36.452Z,0.65
2022-09-05T20:52:08.861Z,0.73
2022-09-05T20:54:26.822Z,1.20
2022-09-05T20:58:18.073Z,0.70
2022-09-05T21:03:27.470Z,0.70
2022-09-05T21:08:32.912Z,0.90
2022-09-05T21:13:52.012Z,0.65
2022-09-05T21:18:54.366Z,0.70
2022-09-05T21:24:00.913Z,0.82
2022-09-05T21:29:32.302Z,0.57
2022-09-05T21:34:38.487Z,0.52
2022-09-05T21:40:00.546Z,0.85
2022-09-05T21:47:38.174Z,0.68
2022-09-05T21:50:31.457Z,0.50
2022-09-05T21:59:16.780Z,0.80
2022-09-05T22:00:56.322Z,0.80
2022-09-05T22:05:57.806Z,0.70
2022-09-05T22:11:04.087Z,1.00
2022-09-05T22:16:08.037Z,0.80
2022-09-05T22:21:32.800Z,1.05
2022-09-05T22:26:37.841Z,0.80
2022-09-05T22:31:42.210Z,0.98
2022-09-05T22:36:43.710Z,0.90
2022-09-05T22:41:45.247Z,0.90
2022-09-05T22:46:46.779Z,0.95
2022-09-05T22:51:48.320Z,0.77
2022-09-05T22:56:49.803Z,1.10
2022-09-05T23:01:51.528Z,0.93
2022-09-05T23:06:53.144Z,0.88
2022-09-05T23:11:54.605Z,0.80
2022-09-05T23:16:56.161Z,0.90
2022-09-05T23:21:57.716Z,1.00
2022-09-05T23:26:59.402Z,0.95
2022-09-05T23:32:00.931Z,0.77
2022-09-05T23:37:02.793Z,0.88
2022-09-05T23:42:04.300Z,0.63
2022-09-05T23:47:05.790Z,0.90
2022-09-05T23:52:07.393Z,0.90
2022-09-05T23:57:08.865Z,0.70
